Time;durP1;ratioP1;P1;durP2;ratioP2;P2;SDS_P1;SDS_P2;PMS_P1;PMS_P2;Temp;Humidity;BMP_temperature;BMP_pressure;BME280_temperature;BME280_humidity;BME280_pressure;Samples;Min_cycle;Max_cycle;Signal;HPM_P1;HPM_P2
2022/09/14 00:01:37;;;;;;;1.00;0.52;;;22.50;64.50;;;;;;5022583;28;43425;-58
2022/09/14 00:04:09;;;;;;;0.40;0.40;;;22.50;64.50;;;;;;5022266;28;43429;-58
2022/09/14 00:06:37;;;;;;;0.90;0.77;;;22.50;64.50;;;;;;5020478;28;44778;-58
2022/09/14 00:09:06;;;;;;;0.90;0.70;;;22.50;65.20;;;;;;5022545;28;44200;-58
2022/09/14 00:11:35;;;;;;;0.95;0.68;;;22.50;64.50;;;;;;5021834;28;43432;-58
2022/09/14 00:14:04;;;;;;;0.93;0.63;;;22.50;64.50;;;;;;5022536;28;43468;-58
2022/09/14 00:16:35;;;;;;;1.10;0.70;;;22.50;64.50;;;;;;5021927;28;43875;-58
2022/09/14 00:19:05;;;;;;;1.50;0.75;;;22.50;64.50;;;;;;5021466;28;44006;-58
2022/09/14 00:21:36;;;;;;;2.00;0.83;;;22.50;64.50;;;;;;5022666;28;43570;-58
2022/09/14 00:24:05;;;;;;;0.60;0.60;;;22.50;64.60;;;;;;5020966;28;44133;-58
2022/09/14 00:26:34;;;;;;;0.63;0.60;;;22.40;64.50;;;;;;5021298;28;44684;-58
2022/09/14 00:29:03;;;;;;;0.60;0.50;;;22.50;64.60;;;;;;5019344;28;43371;-57
2022/09/14 00:31:33;;;;;;;2.03;0.60;;;22.50;64.60;;;;;;5022080;28;43411;-57
2022/09/14 00:34:02;;;;;;;1.08;0.70;;;22.40;64.50;;;;;;5021325;28;43427;-58
2022/09/14 00:36:31;;;;;;;0.50;0.50;;;22.40;64.50;;;;;;5021186;28;44045;-57
2022/09/14 00:38:59;;;;;;;0.65;0.60;;;22.40;64.50;;;;;;5021787;28;43944;-57
2022/09/14 00:41:32;;;;;;;1.02;0.82;;;22.40;64.50;;;;;;5022008;28;43451;-58
2022/09/14 00:44:02;;;;;;;0.70;0.70;;;22.40;64.60;;;;;;5021977;28;43458;-58
2022/09/14 00:46:45;;;;;;;0.50;0.50;;;22.40;64.60;;;;;;5020491;28;43880;-58
2022/09/14 00:49:16;;;;;;;0.88;0.70;;;22.40;64.60;;;;;;5022315;28;43396;-58
2022/09/14 00:51:49;;;;;;;;;;;22.40;64.70;;;;;;5021958;28;43366;-58
2022/09/14 00:54:17;;;;;;;0.60;0.55;;;22.40;64.60;;;;;;5021385;28;43456;-58
2022/09/14 00:56:46;;;;;;;1.48;0.90;;;22.30;64.60;;;;;;5021300;28;43897;-57
2022/09/14 00:59:22;;;;;;;0.57;0.55;;;22.30;64.60;;;;;;5023291;28;43701;-58
2022/09/14 01:01:49;;;;;;;1.08;0.70;;;22.40;64.70;;;;;;5021686;28;43453;-58
2022/09/14 01:04:17;;;;;;;1.17;0.80;;;22.30;64.60;;;;;;5022230;28;43623;-58
2022/09/14 01:07:17;;;;;;;0.63;0.50;;;22.30;64.70;;;;;;5022141;28;43755;-58
2022/09/14 01:09:56;;;;;;;0.82;0.80;;;22.30;64.60;;;;;;5018844;28;43474;-58
2022/09/14 01:12:32;;;;;;;0.93;0.52;;;22.30;64.70;;;;;;5021584;28;43424;-58
2022/09/14 01:15:21;;;;;;;0.50;0.50;;;22.30;64.70;;;;;;5020898;28;43459;-58
2022/09/14 01:18:20;;;;;;;0.93;0.82;;;22.40;64.70;;;;;;5021270;28;45131;-57
2022/09/14 01:20:50;;;;;;;0.82;0.60;;;22.30;64.70;;;;;;5019551;28;43401;-58
2022/09/14 01:24:14;;;;;;;0.70;0.70;;;22.30;64.70;;;;;;5021065;28;43522;-58
2022/09/14 01:27:00;;;;;;;0.50;0.50;;;22.30;64.70;;;;;;5066600;28;43466;-58
2022/09/14 01:29:37;;;;;;;1.13;0.70;;;22.30;64.70;;;;;;5009510;28;44667;-58
2022/09/14 01:32:20;;;;;;;0.55;0.55;;;22.30;64.70;;;;;;5021351;28;43554;-58
2022/09/14 01:34:51;;;;;;;0.80;0.55;;;22.30;64.70;;;;;;5018408;28;43380;-58
2022/09/14 01:37:42;;;;;;;1.23;0.77;;;22.30;64.70;;;;;;5020727;28;43420;-58
2022/09/14 01:40:31;;;;;;;0.40;0.40;;;22.20;64.70;;;;;;5030730;28;43994;-58
2022/09/14 01:43:09;;;;;;;0.82;0.50;;;22.30;64.70;;;;;;5020413;28;43770;-58
2022/09/14 01:45:47;;;;;;;0.75;0.60;;;22.20;64.70;;;;;;5021459;28;43709;-58
2022/09/14 01:48:20;;;;;;;1.02;0.52;;;22.20;64.70;;;;;;5021721;28;43523;-58
2022/09/14 01:50:52;;;;;;;0.55;0.50;;;22.30;64.70;;;;;;5023857;28;43913;-57
2022/09/14 01:53:30;;;;;;;0.57;0.57;;;22.20;64.70;;;;;;5022966;28;43475;-58
2022/09/14 01:56:03;;;;;;;0.68;0.68;;;22.20;64.70;;;;;;5018296;28;43415;-58
2022/09/14 01:58:38;;;;;;;0.77;0.50;;;22.20;64.70;;;;;;5025764;28;43561;-58
2022/09/14 02:01:09;;;;;;;0.90;0.73;;;22.20;64.70;;;;;;5023457;28;43875;-58
2022/09/14 02:03:45;;;;;;;0.65;0.57;;;22.20;64.70;;;;;;5023976;28;43647;-58
2022/09/14 02:06:20;;;;;;;0.90;0.57;;;22.20;64.70;;;;;;5022870;28;43476;-58
2022/09/14 02:08:48;;;;;;;1.48;0.70;;;22.20;64.70;;;;;;5049812;28;43386;-58
2022/09/14 02:11:16;;;;;;;0.73;0.50;;;22.20;64.80;;;;;;5023618;28;44790;-58
2022/09/14 02:13:43;;;;;;;1.00;0.45;;;22.20;64.70;;;;;;5023961;28;44005;-58
2022/09/14 02:16:11;;;;;;;1.00;0.60;;;22.20;64.80;;;;;;5024343;28;43458;-58
2022/09/14 02:18:39;;;;;;;0.73;0.55;;;22.10;64.70;;;;;;5023366;28;43499;-58
2022/09/14 02:21:18;;;;;;;0.60;0.60;;;22.20;64.80;;;;;;5024717;28;43634;-58
2022/09/14 02:23:47;;;;;;;0.63;0.60;;;22.10;64.70;;;;;;5023629;28;43662;-58
2022/09/14 02:26:17;;;;;;;1.85;0.40;;;22.20;64.80;;;;;;5023016;28;43507;-58
2022/09/14 02:28:45;;;;;;;1.52;0.80;;;22.10;64.70;;;;;;5022825;28;43477;-57
2022/09/14 02:31:29;;;;;;;0.73;0.60;;;22.20;64.80;;;;;;5024003;28;44788;-58
2022/09/14 02:34:54;;;;;;;0.70;0.45;;;22.20;64.70;;;;;;5022924;28;43933;-57
2022/09/14 02:37:54;;;;;;;0.45;0.45;;;22.10;64.70;;;;;;5033758;28;43412;-57
2022/09/14 02:40:34;;;;;;;0.65;0.60;;;22.10;64.70;;;;;;5040077;28;43556;-58
2022/09/14 02:43:10;;;;;;;1.90;0.60;;;22.10;64.80;;;;;;5024573;28;44807;-58
2022/09/14 02:45:44;;;;;;;0.88;0.50;;;22.10;64.80;;;;;;5023423;28;43417;-57
2022/09/14 02:48:33;;;;;;;0.68;0.63;;;22.10;64.80;;;;;;5020722;28;43452;-57
2022/09/14 02:51:24;;;;;;;1.45;0.68;;;22.10;64.80;;;;;;5023881;28;43397;-58
2022/09/14 02:54:13;;;;;;;1.45;0.55;;;22.10;65.20;;;;;;5022711;28;44691;-58
2022/09/14 02:56:40;;;;;;;0.40;0.40;;;22.10;64.80;;;;;;5023638;28;43569;-57
2022/09/14 02:59:08;;;;;;;1.75;0.90;;;22.10;64.80;;;;;;5022882;28;43463;-57
2022/09/14 03:01:35;;;;;;;0.75;0.50;;;22.10;64.80;;;;;;5023233;28;43434;-58
2022/09/14 03:04:03;;;;;;;1.10;0.70;;;22.10;64.90;;;;;;5023236;28;43814;-58
2022/09/14 03:06:30;;;;;;;0.60;0.60;;;22.10;64.80;;;;;;5022899;28;43457;-58
2022/09/14 03:08:58;;;;;;;0.47;0.47;;;22.10;64.80;;;;;;5023010;28;43369;-57
2022/09/14 03:11:25;;;;;;;0.80;0.80;;;22.10;64.80;;;;;;5023461;28;43439;-57
2022/09/14 03:13:53;;;;;;;1.05;0.73;;;22.10;64.80;;;;;;5022622;28;44810;-58
2022/09/14 03:16:21;;;;;;;1.25;0.45;;;22.10;64.80;;;;;;5021350;28;43946;-57
2022/09/14 03:18:48;;;;;;;0.57;0.50;;;22.10;64.80;;;;;;5023191;28;43450;-57
2022/09/14 03:21:16;;;;;;;0.43;0.43;;;22.10;64.80;;;;;;5023017;28;43466;-57
2022/09/14 03:23:50;;;;;;;1.05;0.50;;;22.10;64.80;;;;;;5022320;28;43799;-58
2022/09/14 03:26:20;;;;;;;0.80;0.57;;;22.00;65.40;;;;;;5022371;28;43499;-58
2022/09/14 03:28:52;;;;;;;0.43;0.43;;;22.00;64.80;;;;;;5022498;28;43348;-58
2022/09/14 03:31:20;;;;;;;0.55;0.50;;;22.00;64.80;;;;;;5012346;28;43393;-58
2022/09/14 03:33:53;;;;;;;0.50;0.50;;;22.00;64.80;;;;;;5022621;28;44996;-58
2022/09/14 03:36:22;;;;;;;0.68;0.50;;;22.00;64.80;;;;;;5021917;28;43454;-57
2022/09/14 03:38:53;;;;;;;0.95;0.40;;;22.00;64.80;;;;;;5023165;28;44047;-58
2022/09/14 03:41:21;;;;;;;0.50;0.45;;;22.00;64.80;;;;;;5022865;28;43482;-58
2022/09/14 03:43:49;;;;;;;0.93;0.50;;;22.00;64.80;;;;;;5053989;28;44682;-58
2022/09/14 03:46:20;;;;;;;0.90;0.57;;;22.00;64.80;;;;;;5022616;28;43987;-58
2022/09/14 03:48:48;;;;;;;0.50;0.50;;;22.00;64.80;;;;;;5022956;28;43409;-58
2022/09/14 03:51:16;;;;;;;1.27;0.45;;;22.00;64.80;;;;;;5022265;28;44068;-57
2022/09/14 03:53:44;;;;;;;0.77;0.57;;;22.00;64.80;;;;;;5022635;28;43803;-57
2022/09/14 03:56:18;;;;;;;0.43;0.40;;;22.00;64.90;;;;;;5022296;28;43474;-58
2022/09/14 03:58:46;;;;;;;0.40;0.32;;;22.00;64.80;;;;;;5023861;28;43538;-57
2022/09/14 04:01:16;;;;;;;0.50;0.50;;;22.00;65.50;;;;;;5022833;28;43435;-58
2022/09/14 04:03:45;;;;;;;0.50;0.50;;;22.00;64.80;;;;;;5021598;28;44972;-57
2022/09/14 04:06:14;;;;;;;0.50;0.45;;;22.00;64.90;;;;;;5022188;28;43847;-57
2022/09/14 04:08:43;;;;;;;0.55;0.55;;;22.00;64.80;;;;;;5022829;28;43402;-57
2022/09/14 04:11:15;;;;;;;0.73;0.40;;;22.00;64.90;;;;;;5021548;28;43459;-57
2022/09/14 04:13:43;;;;;;;0.90;0.40;;;22.00;64.90;;;;;;5022394;28;44893;-57
2022/09/14 04:16:11;;;;;;;0.70;0.60;;;22.00;64.90;;;;;;5021984;28;43427;-58
2022/09/14 04:18:39;;;;;;;0.73;0.52;;;22.00;64.90;;;;;;5021951;28;44058;-57
2022/09/14 04:21:11;;;;;;;0.80;0.57;;;22.00;64.90;;;;;;5022895;28;43555;-58
2022/09/14 04:23:38;;;;;;;0.55;0.50;;;22.00;64.90;;;;;;5022320;28;44045;-58
2022/09/14 04:26:28;;;;;;;0.77;0.50;;;22.00;64.90;;;;;;5012761;28;43965;-58
2022/09/14 04:28:56;;;;;;;0.57;0.47;;;22.00;64.90;;;;;;5022144;28;43382;-57
2022/09/14 04:31:24;;;;;;;0.70;0.45;;;21.90;64.80;;;;;;5021802;28;44054;-58
2022/09/14 04:33:55;;;;;;;0.40;0.40;;;21.90;64.80;;;;;;5020879;28;44196;-57
2022/09/14 04:36:29;;;;;;;0.65;0.40;;;21.90;64.80;;;;;;5022248;28;43501;-58
2022/09/14 04:39:00;;;;;;;0.57;0.40;;;21.90;64.80;;;;;;5022175;28;43465;-58
2022/09/14 04:41:29;;;;;;;0.50;0.45;;;21.90;64.90;;;;;;5021567;28;43427;-58
2022/09/14 04:43:57;;;;;;;0.63;0.45;;;21.90;64.80;;;;;;5022031;28;44035;-57
2022/09/14 04:46:28;;;;;;;0.70;0.52;;;21.90;64.90;;;;;;5021006;28;43512;-58
2022/09/14 04:48:56;;;;;;;;;;;21.90;64.90;;;;;;5022917;28;43522;-58
2022/09/14 04:51:27;;;;;;;0.52;0.50;;;21.90;64.90;;;;;;5022069;28;43604;-58
2022/09/14 04:53:57;;;;;;;0.47;0.47;;;21.90;65.00;;;;;;5021226;28;43743;-58
2022/09/14 04:56:27;;;;;;;0.30;0.30;;;21.90;65.00;;;;;;5021039;28;43472;-58
2022/09/14 04:59:00;;;;;;;0.60;0.40;;;21.90;64.90;;;;;;5022207;28;43472;-57
2022/09/14 05:01:31;;;;;;;0.40;0.40;;;21.90;64.90;;;;;;5017298;28;43405;-58
2022/09/14 05:03:58;;;;;;;0.30;0.30;;;21.90;64.90;;;;;;5022022;28;43875;-58
2022/09/14 05:06:29;;;;;;;0.75;0.50;;;21.90;64.90;;;;;;5000882;28;43373;-57
2022/09/14 05:08:58;;;;;;;0.57;0.57;;;21.90;64.90;;;;;;5021691;28;43420;-57
2022/09/14 05:11:28;;;;;;;0.68;0.43;;;21.90;64.90;;;;;;5021900;28;43428;-57
2022/09/14 05:13:57;;;;;;;0.30;0.30;;;21.90;64.90;;;;;;5021199;28;43803;-57
2022/09/14 05:16:27;;;;;;;0.40;0.40;;;21.90;64.90;;;;;;5021078;28;43800;-58
2022/09/14 05:18:57;;;;;;;0.52;0.40;;;21.90;64.90;;;;;;5021739;28;43449;-58
2022/09/14 05:21:25;;;;;;;0.30;0.23;;;21.90;64.90;;;;;;5020797;28;43539;-57
2022/09/14 05:23:54;;;;;;;1.38;0.50;;;21.90;65.10;;;;;;5021381;28;46883;-57
2022/09/14 05:26:23;;;;;;;0.57;0.43;;;21.80;64.90;;;;;;5023265;28;44460;-58
2022/09/14 05:28:53;;;;;;;0.95;0.57;;;21.90;64.90;;;;;;5024595;28;43419;-58
2022/09/14 05:31:22;;;;;;;0.35;0.35;;;21.80;64.90;;;;;;5017215;28;43498;-58
2022/09/14 05:33:50;;;;;;;0.55;0.43;;;21.80;64.90;;;;;;5023243;28;44702;-57
2022/09/14 05:36:18;;;;;;;1.13;0.52;;;21.80;64.90;;;;;;5023514;28;43699;-58
2022/09/14 05:38:46;;;;;;;0.52;0.52;;;21.80;64.90;;;;;;5025016;28;43436;-57
2022/09/14 05:41:14;;;;;;;0.60;0.57;;;21.90;64.90;;;;;;5024938;28;43474;-58
2022/09/14 05:43:43;;;;;;;0.98;0.68;;;21.80;64.90;;;;;;5023961;28;44672;-57
2022/09/14 05:46:13;;;;;;;0.85;0.52;;;21.80;64.90;;;;;;5023082;28;43507;-58
2022/09/14 05:48:42;;;;;;;0.50;0.50;;;21.80;65.00;;;;;;5024490;28;43474;-57
2022/09/14 05:51:18;;;;;;;1.17;0.63;;;21.80;64.90;;;;;;5024383;28;43419;-58
2022/09/14 05:53:53;;;;;;;0.55;0.40;;;21.80;64.90;;;;;;5024507;28;44733;-57
2022/09/14 05:56:22;;;;;;;0.38;0.38;;;21.80;65.00;;;;;;5023292;28;43498;-58
2022/09/14 05:58:50;;;;;;;0.60;0.60;;;21.80;65.00;;;;;;5026254;28;43520;-58
2022/09/14 06:01:21;;;;;;;0.70;0.60;;;21.80;65.00;;;;;;5024538;28;43604;-58
2022/09/14 06:03:51;;;;;;;0.50;0.50;;;21.80;65.00;;;;;;5023882;28;44868;-57
2022/09/14 06:06:19;;;;;;;0.77;0.60;;;21.80;65.00;;;;;;5023876;28;43462;-58
2022/09/14 06:08:52;;;;;;;0.50;0.40;;;21.80;65.00;;;;;;5024475;28;43408;-58
2022/09/14 06:11:27;;;;;;;0.55;0.50;;;21.80;65.00;;;;;;5011797;28;43438;-58
2022/09/14 06:13:55;;;;;;;0.90;0.50;;;21.80;65.10;;;;;;5022672;28;45321;-58
2022/09/14 06:16:25;;;;;;;1.35;0.60;;;21.80;65.00;;;;;;5022369;28;43682;-58
2022/09/14 06:18:54;;;;;;;0.38;0.38;;;21.80;65.00;;;;;;5022474;28;43457;-58
2022/09/14 06:21:28;;;;;;;0.45;0.45;;;21.80;65.00;;;;;;5024090;28;43402;-58
2022/09/14 06:23:56;;;;;;;0.43;0.43;;;21.80;65.00;;;;;;5022641;28;44034;-58
2022/09/14 06:26:25;;;;;;;0.75;0.47;;;21.80;65.00;;;;;;5012141;28;43811;-58
2022/09/14 06:28:54;;;;;;;1.20;0.60;;;21.80;65.20;;;;;;5024231;28;43384;-58
2022/09/14 06:31:21;;;;;;;0.32;0.30;;;21.80;65.00;;;;;;5022447;28;43619;-58
2022/09/14 06:33:50;;;;;;;0.80;0.50;;;21.80;65.00;;;;;;5021415;28;43877;-58
2022/09/14 06:36:21;;;;;;;0.50;0.50;;;21.80;65.00;;;;;;5022925;28;43905;-58
2022/09/14 06:38:49;;;;;;;0.68;0.50;;;21.80;65.10;;;;;;5023091;28;43443;-58
2022/09/14 06:41:20;;;;;;;0.43;0.40;;;21.80;65.00;;;;;;5022298;28;43633;-58
2022/09/14 06:43:49;;;;;;;0.95;0.40;;;21.80;65.00;;;;;;5020612;28;44954;-58
2022/09/14 06:46:22;;;;;;;1.10;0.60;;;21.80;65.10;;;;;;5022195;28;43979;-58
2022/09/14 06:48:53;;;;;;;0.95;0.50;;;21.80;65.10;;;;;;5023838;28;43431;-58
2022/09/14 06:51:24;;;;;;;0.50;0.50;;;21.80;65.20;;;;;;5022201;28;44015;-58
2022/09/14 06:53:55;;;;;;;1.73;0.77;;;21.80;65.10;;;;;;5022513;28;43948;-58
2022/09/14 06:56:22;;;;;;;0.60;0.50;;;21.80;65.10;;;;;;5022990;28;43572;-58
2022/09/14 06:58:51;;;;;;;1.00;0.57;;;21.80;65.10;;;;;;5023315;28;43582;-58
2022/09/14 07:01:20;;;;;;;0.93;0.60;;;21.80;65.20;;;;;;5022632;28;43500;-58
2022/09/14 07:03:48;;;;;;;1.52;0.70;;;21.80;65.30;;;;;;5023238;28;44707;-58
2022/09/14 07:06:19;;;;;;;0.47;0.47;;;21.80;65.20;;;;;;5054635;28;43451;-58
2022/09/14 07:08:48;;;;;;;0.52;0.52;;;21.80;65.20;;;;;;5023144;28;43387;-58
2022/09/14 07:11:18;;;;;;;0.40;0.40;;;21.80;65.30;;;;;;5023538;28;43527;-58
2022/09/14 07:13:46;;;;;;;1.40;0.70;;;21.80;65.20;;;;;;5022329;28;43868;-58
2022/09/14 07:16:14;;;;;;;0.57;0.57;;;21.80;65.20;;;;;;5022783;28;43753;-58
2022/09/14 07:18:42;;;;;;;1.13;0.40;;;21.80;65.20;;;;;;5022105;28;43498;-58
2022/09/14 07:21:18;;;;;;;1.60;0.52;;;21.80;65.30;;;;;;5021458;28;43453;-58
2022/09/14 07:23:47;;;;;;;1.15;0.40;;;21.80;65.30;;;;;;5023163;28;43975;-58
2022/09/14 07:26:20;;;;;;;0.57;0.40;;;21.80;65.20;;;;;;5023018;28;43788;-58
2022/09/14 07:28:51;;;;;;;1.80;0.43;;;21.80;65.30;;;;;;5023044;28;43332;-58
2022/09/14 07:31:24;;;;;;;0.82;0.50;;;21.80;65.30;;;;;;5012361;28;43437;-58
2022/09/14 07:34:00;;;;;;;0.60;0.60;;;21.80;65.30;;;;;;5022563;28;43817;-59
2022/09/14 07:36:30;;;;;;;1.13;0.60;;;21.80;65.20;;;;;;5021655;28;43400;-58
2022/09/14 07:39:05;;;;;;;0.55;0.50;;;21.80;65.30;;;;;;5023236;28;43530;-58
2022/09/14 07:41:34;;;;;;;0.85;0.55;;;21.80;65.20;;;;;;5022434;28;43483;-58
2022/09/14 07:44:04;;;;;;;1.98;0.60;;;21.80;65.30;;;;;;5015355;28;44060;-58
2022/09/14 07:46:39;;;;;;;1.02;0.60;;;21.80;65.20;;;;;;5021088;28;44421;-58
2022/09/14 07:49:08;;;;;;;1.30;0.60;;;21.80;65.30;;;;;;5011837;28;43415;-57
2022/09/14 07:51:36;;;;;;;0.85;0.82;;;21.80;65.30;;;;;;5022425;28;43572;-57
2022/09/14 07:54:06;;;;;;;0.60;0.40;;;21.80;65.40;;;;;;5022522;28;43588;-57
2022/09/14 07:56:34;;;;;;;2.28;0.90;;;21.80;65.40;;;;;;5021099;28;43411;-57
2022/09/14 07:59:04;;;;;;;1.45;0.90;;;21.80;65.40;;;;;;5023419;28;43464;-57
2022/09/14 08:01:51;;;;;;;1.63;0.90;;;21.80;65.50;;;;;;5022409;28;43526;-57
2022/09/14 08:04:20;;;;;;;1.75;0.80;;;21.80;65.50;;;;;;5020557;28;44951;-57
2022/09/14 08:06:47;;;;;;;0.90;0.70;;;21.80;65.50;;;;;;5021008;28;45053;-58
2022/09/14 08:09:14;;;;;;;0.70;0.60;;;21.80;65.50;;;;;;5022686;28;43393;-58
2022/09/14 08:11:42;;;;;;;2.65;0.75;;;21.80;65.50;;;;;;5022293;28;43507;-57
2022/09/14 08:14:12;;;;;;;2.33;0.80;;;21.80;65.50;;;;;;5021969;28;44784;-58
2022/09/14 08:16:40;;;;;;;3.25;0.93;;;21.80;65.40;;;;;;5021962;28;43401;-57
2022/09/14 08:19:14;;;;;;;0.85;0.85;;;21.80;65.40;;;;;;5021875;28;43472;-57
2022/09/14 08:21:42;;;;;;;2.67;0.95;;;21.80;65.40;;;;;;5021275;28;43435;-58
2022/09/14 08:24:18;;;;;;;1.45;0.95;;;21.80;65.40;;;;;;5021452;28;44984;-58
2022/09/14 08:26:47;;;;;;;1.75;0.93;;;21.80;65.40;;;;;;5021828;28;43460;-58
2022/09/14 08:29:16;;;;;;;1.23;0.68;;;21.80;65.30;;;;;;5022625;28;43473;-57
2022/09/14 08:31:44;;;;;;;2.08;1.02;;;21.80;65.30;;;;;;5021870;28;43445;-58
2022/09/14 08:34:14;;;;;;;2.53;1.00;;;21.80;65.40;;;;;;5010694;28;45010;-57
2022/09/14 08:36:43;;;;;;;1.27;0.73;;;21.80;65.30;;;;;;5019850;28;43446;-57
2022/09/14 08:39:12;;;;;;;1.75;0.70;;;21.80;65.30;;;;;;5022007;28;43468;-58
2022/09/14 08:41:48;;;;;;;2.42;0.90;;;21.80;65.30;;;;;;5021875;28;43488;-58
2022/09/14 08:44:42;;;;;;;3.00;0.73;;;21.80;65.30;;;;;;5021733;28;43906;-58
2022/09/14 08:47:11;;;;;;;2.35;0.90;;;21.80;65.30;;;;;;5021211;28;44034;-58
2022/09/14 08:49:58;;;;;;;1.38;0.70;;;21.80;65.30;;;;;;5020661;28;43520;-57
2022/09/14 08:52:31;;;;;;;1.20;0.80;;;21.80;65.30;;;;;;5021446;28;43496;-57
2022/09/14 08:55:23;;;;;;;1.70;0.75;;;21.80;65.30;;;;;;5021485;28;44871;-58
2022/09/14 08:58:01;;;;;;;1.25;0.68;;;21.80;65.30;;;;;;5017772;28;43395;-58
2022/09/14 09:00:50;;;;;;;2.08;0.90;;;21.80;65.30;;;;;;5024727;28;43970;-59
2022/09/14 09:03:59;;;;;;;0.80;0.50;;;21.80;65.40;;;;;;5025472;28;43436;-58
2022/09/14 09:06:54;;;;;;;1.63;0.75;;;21.80;65.30;;;;;;5025005;28;44955;-58
2022/09/14 09:09:21;;;;;;;1.40;0.75;;;21.80;65.30;;;;;;5025215;28;43952;-58
2022/09/14 09:11:52;;;;;;;1.33;0.80;;;21.80;65.30;;;;;;5023853;28;43438;-58
2022/09/14 09:14:26;;;;;;;0.65;0.63;;;21.80;65.30;;;;;;5024511;28;43483;-58
2022/09/14 09:16:56;;;;;;;0.88;0.70;;;21.80;65.20;;;;;;5025148;28;44777;-58
2022/09/14 09:19:31;;;;;;;1.02;0.77;;;21.80;65.30;;;;;;5024829;28;43446;-58
2022/09/14 09:22:02;;;;;;;1.40;0.90;;;21.80;65.20;;;;;;5023814;28;43438;-58
2022/09/14 09:24:38;;;;;;;0.70;0.70;;;21.80;65.20;;;;;;5024833;28;43467;-58
2022/09/14 09:27:15;;;;;;;1.25;0.80;;;21.80;65.20;;;;;;5024829;28;45004;-58
2022/09/14 09:29:43;;;;;;;0.60;0.57;;;21.90;65.20;;;;;;5023917;28;43447;-58
2022/09/14 09:32:19;;;;;;;1.50;0.93;;;21.90;65.30;;;;;;5025296;28;43455;-58
2022/09/14 09:35:23;;;;;;;2.17;0.80;;;21.80;65.40;;;;;;5020719;28;43510;-58
2022/09/14 09:37:57;;;;;;;1.40;0.90;;;21.90;65.30;;;;;;5023421;28;44955;-58
2022/09/14 09:40:35;;;;;;;0.68;0.60;;;21.90;65.40;;;;;;5023246;28;43457;-58
2022/09/14 09:43:24;;;;;;;1.38;0.98;;;21.90;65.30;;;;;;5019297;28;43463;-58
2022/09/14 09:46:12;;;;;;;1.80;0.75;;;21.90;65.20;;;;;;5024368;28;43402;-58
2022/09/14 09:48:42;;;;;;;0.93;0.68;;;21.90;65.20;;;;;;5023824;28;43782;-58
2022/09/14 09:51:25;;;;;;;1.52;0.85;;;21.90;65.10;;;;;;5024917;28;44015;-58
2022/09/14 09:54:29;;;;;;;0.82;0.60;;;22.00;65.20;;;;;;5023252;28;43478;-58
2022/09/14 09:57:18;;;;;;;1.75;0.75;;;21.90;65.10;;;;;;5000919;28;43615;-58
2022/09/14 09:59:47;;;;;;;0.47;0.47;;;21.90;65.10;;;;;;5023662;28;43581;-58
2022/09/14 10:02:30;;;;;;;1.42;0.80;;;22.00;65.10;;;;;;5024442;28;43368;-58
2022/09/14 10:04:58;;;;;;;1.10;0.80;;;22.00;65.00;;;;;;5012757;28;43514;-58
2022/09/14 10:07:27;;;;;;;0.70;0.63;;;22.00;65.10;;;;;;5024303;28;43476;-59
2022/09/14 10:10:02;;;;;;;0.65;0.65;;;22.00;65.00;;;;;;5023396;28;44692;-58
2022/09/14 10:12:30;;;;;;;0.73;0.73;;;22.00;65.10;;;;;;5023734;28;43343;-58
2022/09/14 10:15:29;;;;;;;0.90;0.60;;;22.00;64.90;;;;;;5022765;28;43384;-58
2022/09/14 10:18:12;;;;;;;1.77;0.63;;;22.00;64.70;;;;;;5024046;28;43566;-58
2022/09/14 10:21:01;;;;;;;1.00;0.80;;;22.00;64.80;;;;;;5020168;28;44925;-58
2022/09/14 10:23:32;;;;;;;1.02;0.70;;;22.00;64.90;;;;;;5023164;28;43590;-58
2022/09/14 10:26:18;;;;;;;2.10;0.90;;;22.00;64.90;;;;;;5022551;28;43399;-58
2022/09/14 10:28:47;;;;;;;2.33;1.00;;;22.00;65.40;;;;;;5023950;28;43435;-58
2022/09/14 10:31:19;;;;;;;0.88;0.80;;;22.00;64.80;;;;;;5023574;28;43887;-58
2022/09/14 10:33:52;;;;;;;1.27;0.90;;;22.00;64.90;;;;;;5023824;28;43439;-58
2022/09/14 10:36:19;;;;;;;1.77;0.70;;;22.10;64.90;;;;;;5023151;28;43455;-58
2022/09/14 10:38:57;;;;;;;1.83;0.70;;;22.00;64.90;;;;;;5021175;28;43432;-58
2022/09/14 10:41:44;;;;;;;1.88;0.90;;;22.10;64.90;;;;;;5022386;28;45001;-58
2022/09/14 10:44:30;;;;;;;1.58;0.98;;;22.00;64.80;;;;;;5023076;28;43400;-58
2022/09/14 10:47:33;;;;;;;2.83;1.00;;;22.10;64.90;;;;;;5020832;28;43412;-58
2022/09/14 10:50:13;;;;;;;0.65;0.65;;;22.10;64.80;;;;;;5054820;28;43533;-58
2022/09/14 10:53:11;;;;;;;1.40;0.90;;;22.10;64.90;;;;;;5022005;28;43916;-59
2022/09/14 10:56:01;;;;;;;2.25;0.80;;;22.10;64.90;;;;;;5022637;28;43379;-58
2022/09/14 10:58:38;;;;;;;1.00;0.70;;;22.10;64.90;;;;;;5023411;28;43408;-58
2022/09/14 11:01:27;;;;;;;1.90;0.88;;;22.10;64.80;;;;;;5024113;28;43473;-58
2022/09/14 11:04:10;;;;;;;1.02;0.90;;;22.10;64.70;;;;;;5016092;28;44944;-58
2022/09/14 11:06:55;;;;;;;1.08;0.75;;;22.10;64.80;;;;;;5022349;28;43412;-58
2022/09/14 11:09:35;;;;;;;2.45;0.85;;;22.10;64.80;;;;;;5023451;28;43406;-59
2022/09/14 11:12:11;;;;;;;1.08;0.60;;;22.20;64.80;;;;;;5023283;28;43399;-59
2022/09/14 11:15:02;;;;;;;2.13;0.73;;;22.20;64.70;;;;;;5021887;28;44698;-59
2022/09/14 11:17:56;;;;;;;2.40;0.85;;;22.20;64.70;;;;;;5054423;28;43491;-58
2022/09/14 11:21:01;;;;;;;1.77;0.98;;;22.20;64.70;;;;;;5016650;28;43463;-59
2022/09/14 11:23:35;;;;;;;1.23;0.60;;;22.20;64.60;;;;;;5047686;28;43509;-60
2022/09/14 11:26:10;;;;;;;2.30;0.80;;;22.20;64.60;;;;;;5022694;28;44301;-59
2022/09/14 11:28:51;;;;;;;1.42;0.82;;;22.30;64.60;;;;;;5022278;28;43456;-58
2022/09/14 11:31:31;;;;;;;1.52;0.85;;;22.30;65.00;;;;;;5013346;28;43424;-59
2022/09/14 11:34:18;;;;;;;1.20;0.70;;;22.30;64.50;;;;;;5022794;28;44172;-59
2022/09/14 11:36:58;;;;;;;1.52;0.73;;;22.40;64.50;;;;;;5021973;28;44737;-59
2022/09/14 11:39:32;;;;;;;0.77;0.60;;;22.40;64.50;;;;;;5022673;28;44303;-58
2022/09/14 11:42:36;;;;;;;1.55;0.65;;;22.40;64.40;;;;;;5023410;28;43328;-58
2022/09/14 11:45:15;;;;;;;1.60;0.75;;;22.40;64.30;;;;;;4985275;28;43498;-58
2022/09/14 11:47:51;;;;;;;0.95;0.80;;;22.40;64.40;;;;;;5022941;28;44704;-58
2022/09/14 11:50:24;;;;;;;2.90;0.93;;;22.40;64.40;;;;;;5022581;28;43452;-58
2022/09/14 11:53:17;;;;;;;2.35;0.68;;;22.40;64.30;;;;;;5018342;28;43415;-58
2022/09/14 11:55:47;;;;;;;2.58;0.80;;;22.50;64.30;;;;;;5021284;28;43435;-58
2022/09/14 11:58:24;;;;;;;1.20;0.75;;;22.50;64.40;;;;;;5024165;28;44984;-58
2022/09/14 12:01:00;;;;;;;0.77;0.60;;;22.50;64.30;;;;;;5018135;28;43344;-59
2022/09/14 12:03:51;;;;;;;2.65;0.70;;;22.50;64.40;;;;;;5019636;28;43492;-60
2022/09/14 12:06:37;;;;;;;0.93;0.70;;;22.50;64.40;;;;;;5022189;28;43644;-58
2022/09/14 12:09:17;;;;;;;1.73;0.70;;;22.50;64.40;;;;;;5022385;28;43902;-58
2022/09/14 12:11:53;;;;;;;0.93;0.57;;;22.50;64.40;;;;;;5021127;28;43494;-58
2022/09/14 12:14:26;;;;;;;1.30;0.82;;;22.50;64.40;;;;;;5004678;28;43536;-59
2022/09/14 12:17:14;;;;;;;1.27;0.70;;;22.50;64.40;;;;;;5022111;28;43495;-58
2022/09/14 12:20:41;;;;;;;1.65;0.63;;;22.50;64.40;;;;;;5022470;28;45175;-59
2022/09/14 12:23:29;;;;;;;1.10;0.70;;;22.60;64.50;;;;;;5069406;28;43458;-59
2022/09/14 12:26:05;;;;;;;0.80;0.60;;;22.60;64.50;;;;;;5072749;28;43468;-58
2022/09/14 12:28:38;;;;;;;1.35;0.70;;;22.60;64.50;;;;;;5030866;28;43506;-58
2022/09/14 12:31:11;;;;;;;1.08;0.60;;;22.60;64.50;;;;;;5021124;28;43671;-58
2022/09/14 12:33:40;;;;;;;1.17;0.60;;;22.60;64.50;;;;;;5021022;28;43693;-58
2022/09/14 12:36:31;;;;;;;0.60;0.60;;;22.60;64.50;;;;;;5009818;28;43495;-58
2022/09/14 12:38:58;;;;;;;0.88;0.68;;;22.60;64.50;;;;;;5012730;28;43538;-58
2022/09/14 12:41:26;;;;;;;0.93;0.60;;;22.60;64.50;;;;;;5020598;28;43798;-59
2022/09/14 12:43:54;;;;;;;0.75;0.60;;;22.60;64.50;;;;;;5020562;28;43473;-58
2022/09/14 12:46:21;;;;;;;1.13;0.70;;;22.60;64.50;;;;;;5020785;28;43445;-58
2022/09/14 12:48:49;;;;;;;1.20;0.70;;;22.70;64.50;;;;;;5023621;28;43554;-58
2022/09/14 12:51:32;;;;;;;1.15;0.70;;;22.60;64.40;;;;;;5019393;28;45044;-59
2022/09/14 12:54:05;;;;;;;2.70;0.60;;;22.70;64.20;;;;;;5012580;28;43369;-59
2022/09/14 12:56:48;;;;;;;2.45;0.75;;;22.70;63.80;;;;;;5019259;28;43545;-59
2022/09/14 12:59:37;;;;;;;1.02;0.50;;;22.70;63.90;;;;;;5022380;28;43547;-59
2022/09/14 13:02:10;;;;;;;1.02;0.55;;;22.70;64.40;;;;;;5020507;28;43591;-58
2022/09/14 13:04:40;;;;;;;1.15;0.70;;;22.70;64.30;;;;;;5020650;28;44206;-59
2022/09/14 13:07:18;;;;;;;1.45;0.88;;;22.70;64.30;;;;;;5019592;28;43465;-59
2022/09/14 13:09:55;;;;;;;0.65;0.65;;;22.70;64.30;;;;;;5021538;28;43411;-59
2022/09/14 13:12:50;;;;;;;1.00;0.50;;;22.70;64.20;;;;;;5018580;28;44150;-59
2022/09/14 13:15:33;;;;;;;1.42;0.75;;;22.70;64.20;;;;;;5018936;28;43436;-59
2022/09/14 13:18:26;;;;;;;0.68;0.68;;;22.70;64.20;;;;;;5021125;28;43514;-58
2022/09/14 13:20:59;;;;;;;2.83;0.70;;;22.70;64.30;;;;;;5014503;28;43483;-58
2022/09/14 13:23:37;;;;;;;2.60;1.25;;;22.70;64.20;;;;;;5036390;28;44239;-59
2022/09/14 13:26:18;;;;;;;1.50;0.60;;;22.70;64.10;;;;;;5021389;28;43410;-59
2022/09/14 13:28:46;;;;;;;;;;;22.70;64.10;;;;;;5020636;28;43503;-58